createdAt,value
2023-02-16T00:01:26.664Z,37.10
2023-02-16T00:03:58.487Z,37.80
2023-02-16T00:06:29.659Z,42.90
2023-02-16T00:08:59.643Z,44.60
2023-02-16T00:11:53.922Z,42.60
2023-02-16T00:14:26.916Z,39.90
2023-02-16T00:16:58.502Z,42.00
2023-02-16T00:19:34.112Z,38.50
2023-02-16T00:22:06.434Z,43.60
2023-02-16T00:24:35.954Z,37.30
2023-02-16T00:27:14.375Z,37.10
2023-02-16T00:29:45.942Z,35.70
2023-02-16T00:32:15.977Z,34.60
2023-02-16T00:34:46.986Z,40.70
2023-02-16T00:37:17.413Z,44.90
2023-02-16T00:39:47.260Z,38.70
2023-02-16T00:42:25.290Z,38.00
2023-02-16T00:44:58.075Z,46.10
2023-02-16T00:47:47.399Z,38.10
2023-02-16T00:50:21.287Z,32.00
2023-02-16T00:52:51.355Z,37.50
2023-02-16T00:55:24.201Z,34.50
2023-02-16T00:58:14.495Z,34.20
2023-02-16T01:00:48.374Z,32.40
2023-02-16T01:03:22.128Z,36.10
2023-02-16T01:06:12.065Z,32.70
2023-02-16T01:09:00.456Z,30.40
2023-02-16T01:11:30.373Z,34.90
2023-02-16T01:14:00.068Z,36.40
2023-02-16T01:16:51.002Z,35.80
2023-02-16T01:19:23.223Z,35.90
2023-02-16T01:21:52.358Z,36.30
2023-02-16T01:24:22.456Z,33.80
2023-02-16T01:26:52.757Z,31.30
2023-02-16T01:29:23.485Z,37.90
2023-02-16T01:31:57.020Z,41.90
2023-02-16T01:34:26.829Z,38.20
2023-02-16T01:36:55.955Z,50.20
2023-02-16T01:39:26.152Z,54.50
2023-02-16T01:41:59.259Z,74.80
2023-02-16T01:44:46.955Z,86.30
2023-02-16T01:47:29.748Z,90.90
2023-02-16T01:50:03.375Z,105.40
2023-02-16T01:52:44.247Z,114.40
2023-02-16T01:55:18.273Z,108.20
2023-02-16T01:58:12.104Z,107.70
2023-02-16T02:00:56.895Z,106.10
2023-02-16T02:03:52.631Z,102.50
2023-02-16T02:06:35.617Z,96.80
2023-02-16T02:09:17.760Z,91.70
2023-02-16T02:11:53.045Z,81.70
2023-02-16T02:14:33.796Z,95.00
2023-02-16T02:17:18.433Z,72.10
2023-02-16T02:20:06.510Z,69.60
2023-02-16T02:23:29.915Z,58.70
2023-02-16T02:26:39.665Z,56.60
2023-02-16T02:29:52.116Z,63.60
2023-02-16T02:32:27.903Z,46.20
2023-02-16T02:35:24.656Z,56.30
2023-02-16T02:38:04.672Z,52.00
2023-02-16T02:40:45.794Z,46.50
2023-02-16T02:43:40.042Z,54.60
2023-02-16T02:46:35.729Z,49.10
2023-02-16T02:49:05.846Z,50.90
2023-02-16T02:51:40.965Z,47.00
2023-02-16T02:54:38.975Z,46.30
2023-02-16T02:57:38.724Z,46.10
2023-02-16T03:00:44.914Z,48.80
2023-02-16T03:03:24.644Z,45.20
2023-02-16T03:06:09.128Z,43.30
2023-02-16T03:08:44.214Z,46.20
2023-02-16T03:11:38.040Z,48.20
2023-02-16T03:14:32.776Z,40.50
2023-02-16T03:17:29.629Z,46.90
2023-02-16T03:20:20.943Z,50.50
2023-02-16T03:23:10.769Z,46.80
2023-02-16T03:26:00.181Z,40.10
2023-02-16T03:28:50.823Z,47.20
2023-02-16T03:31:29.596Z,46.90
2023-02-16T03:33:59.830Z,41.20
2023-02-16T03:36:33.970Z,42.50
2023-02-16T03:39:06.249Z,46.60
2023-02-16T03:41:42.195Z,50.60
2023-02-16T03:44:11.559Z,41.70
2023-02-16T03:46:41.651Z,53.50
2023-02-16T03:49:12.893Z,60.40
2023-02-16T03:51:43.063Z,67.90
2023-02-16T03:54:13.602Z,71.30
2023-02-16T03:56:43.213Z,84.50
2023-02-16T03:59:13.086Z,94.10
2023-02-16T04:01:43.136Z,86.90
2023-02-16T04:04:13.241Z,88.60
2023-02-16T04:06:43.564Z,71.60
2023-02-16T04:09:13.286Z,88.50
2023-02-16T04:12:02.413Z,65.70
2023-02-16T04:14:32.593Z,74.90
2023-02-16T04:17:04.293Z,73.20
2023-02-16T04:19:34.124Z,71.10
2023-02-16T04:22:03.143Z,73.10
2023-02-16T04:24:32.846Z,66.70
2023-02-16T04:27:02.186Z,61.40
2023-02-16T04:29:32.389Z,61.60
2023-02-16T04:32:05.498Z,68.60
2023-02-16T04:34:34.753Z,66.30
2023-02-16T04:37:06.499Z,64.50
2023-02-16T04:39:36.391Z,54.20
2023-02-16T04:42:06.677Z,53.70
2023-02-16T04:44:37.401Z,55.50
2023-02-16T04:47:07.029Z,50.00
2023-02-16T04:49:36.933Z,51.80
2023-02-16T04:52:07.414Z,51.70
2023-02-16T04:54:37.308Z,48.70
2023-02-16T04:57:07.026Z,53.00
2023-02-16T04:59:36.811Z,58.60
2023-02-16T05:02:06.568Z,45.10
2023-02-16T05:04:36.456Z,45.50
2023-02-16T05:07:06.990Z,51.80
2023-02-16T05:09:37.863Z,43.40
2023-02-16T05:12:26.319Z,43.00
2023-02-16T05:14:56.550Z,49.50
2023-02-16T05:17:27.960Z,44.70
2023-02-16T05:20:01.964Z,41.90
2023-02-16T05:22:34.941Z,40.20
2023-02-16T05:27:36.173Z,40.80
2023-02-16T05:30:07.710Z,41.00
2023-02-16T05:32:36.930Z,42.30
2023-02-16T05:35:07.011Z,49.40
2023-02-16T05:37:36.586Z,43.20
2023-02-16T05:40:07.762Z,44.40
2023-02-16T05:42:37.048Z,45.10
2023-02-16T05:45:08.173Z,48.70
2023-02-16T05:47:38.084Z,50.20
2023-02-16T05:50:07.985Z,51.50
2023-02-16T05:52:37.152Z,59.40
2023-02-16T05:55:07.685Z,63.10
2023-02-16T05:57:37.599Z,74.40
2023-02-16T06:00:09.016Z,71.80
2023-02-16T06:05:09.645Z,63.40
2023-02-16T06:07:38.817Z,66.90
2023-02-16T06:10:10.575Z,56.40
2023-02-16T06:12:40.089Z,58.30
2023-02-16T06:15:10.747Z,50.50
2023-02-16T06:17:40.436Z,54.90
2023-02-16T06:20:11.336Z,46.50
2023-02-16T06:22:40.810Z,49.50
2023-02-16T06:25:10.925Z,47.00
2023-02-16T06:27:41.486Z,48.20
2023-02-16T06:30:12.928Z,44.60
2023-02-16T06:32:42.438Z,38.40
2023-02-16T06:35:12.525Z,41.60
2023-02-16T06:37:42.046Z,48.60
2023-02-16T06:40:16.721Z,49.00
2023-02-16T06:42:46.668Z,39.70
2023-02-16T06:45:16.690Z,43.10
2023-02-16T06:47:46.666Z,45.20
2023-02-16T06:50:18.318Z,38.60
2023-02-16T06:52:47.695Z,34.20
2023-02-16T06:55:17.845Z,42.10
2023-02-16T06:57:47.798Z,38.50
2023-02-16T07:00:17.629Z,36.90
2023-02-16T07:02:47.381Z,42.80
2023-02-16T07:05:18.001Z,41.60
2023-02-16T07:07:47.969Z,41.10
2023-02-16T07:10:18.582Z,36.90
2023-02-16T07:12:50.030Z,41.20
2023-02-16T07:15:20.885Z,45.00
2023-02-16T07:17:50.993Z,38.20
2023-02-16T07:20:21.422Z,40.30
2023-02-16T07:22:50.538Z,42.10
2023-02-16T07:25:20.107Z,47.40
2023-02-16T07:27:51.529Z,39.40
2023-02-16T07:30:21.816Z,41.50
2023-02-16T07:32:51.635Z,45.00
2023-02-16T07:35:23.363Z,46.10
2023-02-16T07:37:53.401Z,43.60
2023-02-16T07:40:23.188Z,56.50
2023-02-16T07:42:52.474Z,58.80
2023-02-16T07:45:22.338Z,63.10
2023-02-16T07:47:52.259Z,55.40
2023-02-16T07:50:21.753Z,53.70
2023-02-16T07:52:52.690Z,59.70
2023-02-16T07:55:22.286Z,50.80
2023-02-16T07:57:55.909Z,57.60
2023-02-16T08:00:27.374Z,52.10
2023-02-16T08:02:57.016Z,53.30
2023-02-16T08:05:27.356Z,51.50
2023-02-16T08:07:56.982Z,54.70
2023-02-16T08:10:27.125Z,43.60
2023-02-16T08:12:56.423Z,50.00
2023-02-16T08:15:26.553Z,44.90
2023-02-16T08:17:55.935Z,48.10
2023-02-16T08:20:43.181Z,47.80
2023-02-16T08:23:15.460Z,50.90
2023-02-16T08:25:46.436Z,54.10
2023-02-16T08:28:16.026Z,53.30
2023-02-16T08:30:45.248Z,48.60
2023-02-16T08:33:15.600Z,52.90
2023-02-16T08:35:45.615Z,44.90
2023-02-16T08:38:17.943Z,48.00
2023-02-16T08:40:51.896Z,38.80
2023-02-16T08:43:22.931Z,41.60
2023-02-16T08:45:53.757Z,46.10
2023-02-16T08:48:23.908Z,46.50
2023-02-16T08:50:55.403Z,41.00
2023-02-16T08:53:25.988Z,36.10
2023-02-16T08:55:59.975Z,43.00
2023-02-16T08:58:30.430Z,46.90
2023-02-16T09:01:06.348Z,55.20
2023-02-16T09:03:39.002Z,41.20
2023-02-16T09:06:10.675Z,47.00
2023-02-16T09:08:42.372Z,43.70
2023-02-16T09:11:14.636Z,47.70
2023-02-16T09:13:45.332Z,45.70
2023-02-16T09:16:18.657Z,54.00
2023-02-16T09:18:49.615Z,44.30
2023-02-16T09:21:23.392Z,43.30
2023-02-16T09:23:59.637Z,49.90
2023-02-16T09:26:33.601Z,45.50
2023-02-16T09:29:04.164Z,46.80
2023-02-16T09:31:37.687Z,47.80
2023-02-16T09:34:16.632Z,48.50
2023-02-16T09:36:47.874Z,50.80
2023-02-16T09:39:19.076Z,53.90
2023-02-16T09:42:05.501Z,55.10
2023-02-16T09:44:55.208Z,58.00
2023-02-16T09:47:31.419Z,59.90
2023-02-16T09:50:13.610Z,55.60
2023-02-16T09:53:10.262Z,55.20
2023-02-16T09:56:05.319Z,58.00
2023-02-16T09:59:13.350Z,72.40
2023-02-16T10:01:59.064Z,65.60
2023-02-16T10:04:31.905Z,61.10
2023-02-16T10:07:34.043Z,62.90
2023-02-16T10:10:08.941Z,58.60
2023-02-16T10:12:44.313Z,50.60
2023-02-16T10:15:20.481Z,60.30
2023-02-16T10:18:02.890Z,60.80
2023-02-16T10:20:38.042Z,54.70
2023-02-16T10:23:27.965Z,56.20
2023-02-16T10:26:14.082Z,55.60
2023-02-16T10:28:55.930Z,40.20
2023-02-16T10:31:31.671Z,47.80
2023-02-16T10:34:35.564Z,57.10
2023-02-16T10:37:28.765Z,46.80
2023-02-16T10:40:01.400Z,52.50
2023-02-16T10:42:44.668Z,52.30
2023-02-16T10:45:14.443Z,46.00
2023-02-16T10:47:47.696Z,51.20
2023-02-16T10:50:27.014Z,46.70
2023-02-16T10:53:13.255Z,51.90
2023-02-16T10:55:42.972Z,47.90
2023-02-16T10:58:27.125Z,53.60
2023-02-16T11:01:37.732Z,46.10
2023-02-16T11:04:36.391Z,45.70
2023-02-16T11:07:23.679Z,44.60
2023-02-16T11:09:56.111Z,42.70
2023-02-16T11:12:54.529Z,41.50
2023-02-16T11:15:27.366Z,46.40
2023-02-16T11:18:08.680Z,49.40
2023-02-16T11:20:48.182Z,42.10
2023-02-16T11:23:29.027Z,45.80
2023-02-16T11:26:10.620Z,49.20
2023-02-16T11:28:47.196Z,41.30
2023-02-16T11:31:22.002Z,48.10
2023-02-16T11:34:12.057Z,47.90
2023-02-16T11:37:16.062Z,35.20
2023-02-16T11:39:54.514Z,41.20
2023-02-16T11:42:44.584Z,42.80
2023-02-16T11:45:33.255Z,40.40
2023-02-16T11:48:07.745Z,45.00
2023-02-16T11:50:41.443Z,45.60
2023-02-16T11:53:12.048Z,49.00
2023-02-16T11:55:48.422Z,47.50
2023-02-16T11:58:20.296Z,47.00
2023-02-16T12:01:11.535Z,50.20
2023-02-16T12:03:58.408Z,43.10
2023-02-16T12:07:02.064Z,42.70
2023-02-16T12:09:31.729Z,38.40
2023-02-16T12:12:23.375Z,46.40
2023-02-16T12:15:40.591Z,46.10
2023-02-16T12:18:34.865Z,42.40
2023-02-16T12:21:07.559Z,42.50
2023-02-16T12:23:41.615Z,41.60
2023-02-16T12:26:41.066Z,37.00
2023-02-16T12:29:27.821Z,39.50
2023-02-16T12:32:25.351Z,35.40
2023-02-16T12:35:04.478Z,36.90
2023-02-16T12:37:58.175Z,39.60
2023-02-16T12:40:48.339Z,41.00
2023-02-16T12:43:20.683Z,39.80
2023-02-16T12:45:51.593Z,40.00
2023-02-16T12:48:37.928Z,45.90
2023-02-16T12:51:15.560Z,44.60
2023-02-16T12:53:59.632Z,37.20
2023-02-16T12:56:38.827Z,41.90
2023-02-16T12:59:33.946Z,48.50
2023-02-16T13:02:12.344Z,45.00
2023-02-16T13:04:53.463Z,50.20
2023-02-16T13:07:47.602Z,44.70
2023-02-16T13:10:35.395Z,43.30
2023-02-16T13:13:24.438Z,42.30
2023-02-16T13:16:01.948Z,48.50
2023-02-16T13:18:38.920Z,52.50
2023-02-16T13:21:22.899Z,52.30
2023-02-16T13:24:26.962Z,55.20
2023-02-16T13:27:21.999Z,57.00
2023-02-16T13:30:04.890Z,52.60
2023-02-16T13:32:52.902Z,49.90
2023-02-16T13:35:41.262Z,50.40
2023-02-16T13:38:32.620Z,46.70
2023-02-16T13:41:19.728Z,52.30
2023-02-16T13:44:03.867Z,52.10
2023-02-16T13:46:41.187Z,46.10
2023-02-16T13:49:38.909Z,42.20
2023-02-16T13:52:27.878Z,39.20
2023-02-16T13:55:29.176Z,44.40
2023-02-16T13:58:16.839Z,40.60
2023-02-16T14:00:50.047Z,41.70
2023-02-16T14:03:21.742Z,42.50
2023-02-16T14:05:56.742Z,43.50
2023-02-16T14:08:31.731Z,43.80
2023-02-16T14:11:11.377Z,45.30
2023-02-16T14:13:47.698Z,46.00
2023-02-16T14:16:32.948Z,40.50
2023-02-16T14:19:22.677Z,40.30
2023-02-16T14:21:55.485Z,44.90
2023-02-16T14:24:25.194Z,39.60
2023-02-16T14:26:59.849Z,38.60
2023-02-16T14:29:48.789Z,40.90
2023-02-16T14:32:41.283Z,46.80
2023-02-16T14:35:27.715Z,45.60
2023-02-16T14:38:00.645Z,42.10
2023-02-16T14:40:41.737Z,41.70
2023-02-16T14:43:55.850Z,44.60
2023-02-16T14:46:28.390Z,43.60
2023-02-16T14:49:35.642Z,44.60
2023-02-16T14:52:05.037Z,47.00
2023-02-16T14:55:24.453Z,44.30
2023-02-16T14:58:36.736Z,40.70
2023-02-16T15:01:17.963Z,44.50
2023-02-16T15:03:55.066Z,42.90
2023-02-16T15:06:25.133Z,40.40
2023-02-16T15:09:00.683Z,39.60
2023-02-16T15:12:02.000Z,39.70
2023-02-16T15:14:45.849Z,38.60
2023-02-16T15:17:31.995Z,42.70
2023-02-16T15:20:25.286Z,42.00
2023-02-16T15:23:01.737Z,41.40
2023-02-16T15:25:34.828Z,38.80
2023-02-16T15:28:11.206Z,44.20
2023-02-16T15:30:48.911Z,42.70
2023-02-16T15:33:34.776Z,41.40
2023-02-16T15:36:13.968Z,40.80
2023-02-16T15:38:57.725Z,39.10
2023-02-16T15:41:37.857Z,39.60
2023-02-16T15:44:36.173Z,44.80
2023-02-16T15:47:18.430Z,48.30
2023-02-16T15:52:36.207Z,41.80
2023-02-16T15:55:10.386Z,50.70
2023-02-16T15:57:41.785Z,41.90
2023-02-16T16:00:23.711Z,40.30
2023-02-16T16:02:58.860Z,40.40
2023-02-16T16:05:59.401Z,46.00
2023-02-16T16:08:30.851Z,40.40
2023-02-16T16:11:02.001Z,42.00
2023-02-16T16:13:32.949Z,40.50
2023-02-16T16:16:05.050Z,41.80
2023-02-16T16:18:39.570Z,48.00
2023-02-16T16:21:27.222Z,42.80
2023-02-16T16:24:51.803Z,45.20
2023-02-16T16:27:36.746Z,44.20
2023-02-16T16:30:24.437Z,47.20
2023-02-16T16:33:02.846Z,40.60
2023-02-16T16:35:48.583Z,43.40
2023-02-16T16:38:28.320Z,47.50
2023-02-16T16:41:03.263Z,48.00
2023-02-16T16:43:38.278Z,48.20
2023-02-16T16:46:18.637Z,54.00
2023-02-16T16:48:51.866Z,46.50
2023-02-16T16:51:24.562Z,49.70
2023-02-16T16:54:06.787Z,46.00
2023-02-16T16:56:42.295Z,48.80
2023-02-16T16:59:11.531Z,47.00
2023-02-16T17:01:41.983Z,53.80
2023-02-16T17:04:11.524Z,57.20
2023-02-16T17:06:41.782Z,49.80
2023-02-16T17:09:11.438Z,51.70
2023-02-16T17:11:41.213Z,49.60
2023-02-16T17:14:19.726Z,53.10
2023-02-16T17:16:53.468Z,51.20
2023-02-16T17:19:24.098Z,45.50
2023-02-16T17:21:53.836Z,51.60
2023-02-16T17:24:23.946Z,44.60
2023-02-16T17:26:53.595Z,40.50
2023-02-16T17:29:23.575Z,44.70
2023-02-16T17:31:52.977Z,43.80
2023-02-16T17:34:29.942Z,44.80
2023-02-16T17:37:07.932Z,53.30
2023-02-16T17:39:37.609Z,41.20
2023-02-16T17:42:12.238Z,40.90
2023-02-16T17:44:42.045Z,42.90
2023-02-16T17:47:16.562Z,43.40
2023-02-16T17:49:46.360Z,42.20
2023-02-16T17:52:16.032Z,41.70
2023-02-16T17:54:46.168Z,45.90
2023-02-16T17:57:15.951Z,41.70
2023-02-16T17:59:45.107Z,42.40
2023-02-16T18:02:14.808Z,41.50
2023-02-16T18:04:44.668Z,40.00
2023-02-16T18:07:17.593Z,39.30
2023-02-16T18:12:18.106Z,37.80
2023-02-16T18:14:47.782Z,44.90
2023-02-16T18:17:18.286Z,45.30
2023-02-16T18:19:48.837Z,41.40
2023-02-16T18:22:18.400Z,49.00
2023-02-16T18:24:48.642Z,39.50
2023-02-16T18:27:21.790Z,48.70
2023-02-16T18:29:52.325Z,41.20
2023-02-16T18:32:22.232Z,42.70
2023-02-16T18:34:52.375Z,45.70
2023-02-16T18:37:21.544Z,46.50
2023-02-16T18:39:51.561Z,39.50
2023-02-16T18:42:21.591Z,40.20
2023-02-16T18:44:52.481Z,43.40
2023-02-16T18:47:21.674Z,39.70
2023-02-16T18:49:53.236Z,36.60
2023-02-16T18:52:23.709Z,39.40
2023-02-16T18:54:53.339Z,40.20
2023-02-16T18:57:23.316Z,40.90
2023-02-16T18:59:53.709Z,39.90
2023-02-16T19:02:23.784Z,39.30
2023-02-16T19:04:53.275Z,37.00
2023-02-16T19:07:23.244Z,42.90
2023-02-16T19:09:53.545Z,43.80
2023-02-16T19:12:23.651Z,39.00
2023-02-16T19:14:56.400Z,42.30
2023-02-16T19:17:38.141Z,39.10
2023-02-16T19:20:18.945Z,39.10
2023-02-16T19:22:52.608Z,41.10
2023-02-16T19:25:24.990Z,36.50
2023-02-16T19:27:55.165Z,38.60
2023-02-16T19:30:25.799Z,38.90
2023-02-16T19:32:56.938Z,45.00
2023-02-16T19:35:28.826Z,36.10
2023-02-16T19:38:01.596Z,42.20
2023-02-16T19:40:32.584Z,40.00
2023-02-16T19:43:02.219Z,34.30
2023-02-16T19:45:32.625Z,37.10
2023-02-16T19:48:02.936Z,37.70
2023-02-16T19:50:32.506Z,38.20
2023-02-16T19:53:01.536Z,37.20
2023-02-16T19:55:31.131Z,41.10
2023-02-16T19:58:00.483Z,39.80
2023-02-16T20:00:30.812Z,37.60
2023-02-16T20:03:01.112Z,38.30
2023-02-16T20:05:31.963Z,38.40
2023-02-16T20:08:02.778Z,38.90
2023-02-16T20:10:34.612Z,41.70
2023-02-16T20:13:06.043Z,39.70
2023-02-16T20:15:35.665Z,41.70
2023-02-16T20:18:07.705Z,46.20
2023-02-16T20:20:37.289Z,43.70
2023-02-16T20:23:09.076Z,47.10
2023-02-16T20:25:40.505Z,47.70
2023-02-16T20:28:10.954Z,50.20
2023-02-16T20:30:42.987Z,47.50
2023-02-16T20:33:12.598Z,47.10
2023-02-16T20:35:43.249Z,46.20
2023-02-16T20:38:16.734Z,48.10
2023-02-16T20:40:46.954Z,48.40
2023-02-16T20:43:19.548Z,46.20
2023-02-16T20:45:49.737Z,42.00
2023-02-16T20:48:20.407Z,42.70
2023-02-16T20:51:09.170Z,44.40
2023-02-16T20:53:50.634Z,40.80
2023-02-16T20:56:28.121Z,47.00
2023-02-16T20:58:59.220Z,44.80
2023-02-16T21:01:33.035Z,46.90
2023-02-16T21:04:35.408Z,37.90
2023-02-16T21:07:05.721Z,39.70
2023-02-16T21:09:36.083Z,42.60
2023-02-16T21:12:05.889Z,39.80
2023-02-16T21:14:35.922Z,43.10
2023-02-16T21:17:05.852Z,45.60
2023-02-16T21:19:38.450Z,38.60
2023-02-16T21:22:09.284Z,38.70
2023-02-16T21:24:41.235Z,41.50
2023-02-16T21:29:41.463Z,34.70
2023-02-16T21:32:11.747Z,38.60
2023-02-16T21:34:41.440Z,40.50
2023-02-16T21:37:10.456Z,42.90
2023-02-16T21:40:01.551Z,45.70
2023-02-16T21:42:35.085Z,43.40
2023-02-16T21:45:14.576Z,34.30
2023-02-16T21:48:05.215Z,40.70
2023-02-16T21:50:39.428Z,39.00
2023-02-16T21:53:09.919Z,42.70
2023-02-16T21:55:59.350Z,33.30
2023-02-16T21:58:34.464Z,36.30
2023-02-16T22:01:04.313Z,38.00
2023-02-16T22:03:34.089Z,40.30
2023-02-16T22:06:07.018Z,34.80
2023-02-16T22:08:40.271Z,36.40
2023-02-16T22:11:12.300Z,35.00
2023-02-16T22:16:14.822Z,36.90
2023-02-16T22:18:45.390Z,36.60
2023-02-16T22:21:16.650Z,39.30
2023-02-16T22:23:46.010Z,34.40
2023-02-16T22:26:42.945Z,45.30
2023-02-16T22:29:12.959Z,47.20
2023-02-16T22:31:50.050Z,48.60
2023-02-16T22:34:24.216Z,51.20
2023-02-16T22:36:53.986Z,46.00
2023-02-16T22:39:23.525Z,44.90
2023-02-16T22:41:52.503Z,42.80
2023-02-16T22:44:23.087Z,43.90
2023-02-16T22:46:55.068Z,47.60
2023-02-16T22:49:24.585Z,38.00
2023-02-16T22:51:55.170Z,29.60
2023-02-16T22:54:25.259Z,48.00
2023-02-16T22:56:59.346Z,41.60
2023-02-16T22:59:29.506Z,42.40
2023-02-16T23:01:59.986Z,41.40
2023-02-16T23:04:30.801Z,42.00
2023-02-16T23:07:00.829Z,42.80
2023-02-16T23:09:30.837Z,40.70
2023-02-16T23:12:00.397Z,39.80
2023-02-16T23:14:30.768Z,39.60
2023-02-16T23:17:00.460Z,41.60
2023-02-16T23:19:30.466Z,41.20
2023-02-16T23:22:00.992Z,43.40
2023-02-16T23:24:30.705Z,45.50
2023-02-16T23:27:00.138Z,39.80
2023-02-16T23:29:30.055Z,45.10
2023-02-16T23:31:59.715Z,44.40
2023-02-16T23:34:34.115Z,41.40
2023-02-16T23:37:03.628Z,45.80
2023-02-16T23:39:33.318Z,41.50
2023-02-16T23:42:03.364Z,41.50
2023-02-16T23:44:32.694Z,47.50
2023-02-16T23:47:03.064Z,35.80
2023-02-16T23:49:33.507Z,38.30
2023-02-16T23:52:03.283Z,33.60
2023-02-16T23:54:37.823Z,31.10
2023-02-16T23:57:08.411Z,36.20
2023-02-16T23:59:38.072Z,36.20
